Saint Paul, MN (55101)

9:55 AM CDT on March 30, 2017 (GMT -0500)
Mud Lake West St Paul MN | | Change Station

Elev 0 ft 44.94 °N, 93.10 °W | Updated 14 seconds ago

Overcast
Overcast
38.4 °F
Feels Like 38 °F
N
3.0
Wind Variable Wind from ENE

Today
High -- | Low -- °F
--% Chance of Precip.
Yesterday
High -- | Low -- °F
Precip. -- in
Pressure 29.95 in
Visibility 10.0 miles
Clouds Few 1400 ft
Mostly Cloudy 3900 ft
Overcast 7000 ft
Windchill 38 °F
Dew Point 34 °F
Humidity 83%
Rainfall 0.02 in
Snow Depth Not available.
6:56 AM 7:37 PM
Waxing Crescent, 9% visible
METAR KSTP 301353Z 07009KT 10SM FEW014 BKN039 OVC070 04/02 A2993 RMK AO2 SLP140 T00390022
Pressure 29.95 in
Visibility 10.0 miles
Clouds Few 1400 ft
Mostly Cloudy 3900 ft
Overcast 7000 ft
Windchill 38 °F
Dew Point 34 °F
Humidity 83%
Rainfall 0.02 in
Snow Depth Not available.
6:56 AM 7:37 PM
Waxing Crescent, 9% visible
METAR KSTP 301353Z 07009KT 10SM FEW014 BKN039 OVC070 04/02 A2993 RMK AO2 SLP140 T00390022

Get Severe Weather Alerts

Thanks for signing up!

Be on the lookout for a verification email in your inbox.

You'll start receiving the daily forecast at 8 AM.

×

10-Day Weather Forecast

Almanac

Astronomy

Mar. 30, 2017 Rise Set
Actual Time
Civil Twilight
Nautical Twilight
Astronomical Twilight
Moon
Length of Visible Light
Length of Day
Tomorrow will be .
, % of the Moon is Illuminated

Today's Extremes

State Highs State Lows

Community

WunderPhotos

Upload Photos

1,962,540 photos uploaded!

WunderBlog® & News

Nearby

Air Quality

  Air Quality AQ Index Pollutant
Not available.

Snow Depth

Station Depth Elevation

Earthquake Activity

City Distance Mag. Time & Date
Minimum magnitude displayed is 2.5.

Earthquake Activity

City Distance Mag. Time & Date
Minimum magnitude displayed is 2.5.

Coastal Water Temperatures

Place Temperature

Stations

Nearby Weather Stations

Station Location Temp. Windchill Dew Point Humidity Wind Precip. Elev Updated Type
                   

Watches & Warnings

There are currently no watches in effect.